createdAt,value
2019-02-05T00:02:26.773Z,2.83
2019-02-05T00:04:56.728Z,2.98
2019-02-05T00:07:26.605Z,2.27
2019-02-05T00:09:56.613Z,3.12
2019-02-05T00:12:26.592Z,3.12
2019-02-05T00:14:56.565Z,3.12
2019-02-05T00:17:26.646Z,1.85
2019-02-05T00:19:56.736Z,2.92
2019-02-05T00:22:27.164Z,2.50
2019-02-05T00:24:57.248Z,2.65
2019-02-05T00:27:27.053Z,2.87
2019-02-05T00:29:56.945Z,2.20
2019-02-05T00:32:26.764Z,2.65
2019-02-05T00:34:57.126Z,2.75
2019-02-05T00:37:26.931Z,2.45
2019-02-05T00:39:56.729Z,3.10
2019-02-05T00:42:26.735Z,2.05
2019-02-05T00:44:56.083Z,2.10
2019-02-05T00:47:25.867Z,2.75
2019-02-05T00:49:56.047Z,2.30
2019-02-05T00:52:25.969Z,2.10
2019-02-05T00:54:56.051Z,2.92
2019-02-05T00:57:25.976Z,2.12
2019-02-05T00:59:55.868Z,2.80
2019-02-05T01:02:25.680Z,1.80
2019-02-05T01:04:56.039Z,2.00
2019-02-05T01:07:25.421Z,2.62
2019-02-05T01:09:55.421Z,2.55
2019-02-05T01:12:25.865Z,2.92
2019-02-05T01:14:55.743Z,2.50
2019-02-05T01:17:25.565Z,1.90
2019-02-05T01:19:55.369Z,2.25
2019-02-05T01:22:25.177Z,2.17
2019-02-05T01:24:55.132Z,2.37
2019-02-05T01:27:25.072Z,2.35
2019-02-05T01:29:55.008Z,1.98
2019-02-05T01:32:25.181Z,2.22
2019-02-05T01:34:54.989Z,2.42
2019-02-05T01:37:24.960Z,2.15
2019-02-05T01:39:56.234Z,2.25
2019-02-05T01:42:26.241Z,2.37
2019-02-05T01:44:56.052Z,2.45
2019-02-05T01:47:25.869Z,2.37
2019-02-05T01:49:55.749Z,2.08
2019-02-05T01:52:25.709Z,2.10
2019-02-05T01:54:55.768Z,3.00
2019-02-05T01:57:25.592Z,1.95
2019-02-05T01:59:55.852Z,2.08
2019-02-05T02:02:25.741Z,1.60
2019-02-05T02:04:55.540Z,2.12
2019-02-05T02:07:25.733Z,2.50
2019-02-05T02:09:55.682Z,2.35
2019-02-05T02:12:25.573Z,2.72
2019-02-05T02:14:55.723Z,2.35
2019-02-05T02:17:25.608Z,2.08
2019-02-05T02:19:55.731Z,2.02
2019-02-05T02:22:25.612Z,2.33
2019-02-05T02:24:55.408Z,1.57
2019-02-05T02:27:25.241Z,1.45
2019-02-05T02:29:55.079Z,1.80
2019-02-05T02:32:25.353Z,1.75
2019-02-05T02:34:55.231Z,1.82
2019-02-05T02:37:25.112Z,1.87
2019-02-05T02:39:54.911Z,2.12
2019-02-05T02:42:24.812Z,1.92
2019-02-05T02:44:54.624Z,2.00
2019-02-05T02:47:27.738Z,2.17
2019-02-05T02:49:56.283Z,2.10
2019-02-05T02:52:26.156Z,2.17
2019-02-05T02:54:56.050Z,1.98
2019-02-05T02:57:26.228Z,2.35
2019-02-05T02:59:56.048Z,1.92
2019-02-05T03:02:25.936Z,3.00
2019-02-05T03:04:55.741Z,2.10
2019-02-05T03:07:25.649Z,1.98
2019-02-05T03:09:55.535Z,2.08
2019-02-05T03:12:25.629Z,2.17
2019-02-05T03:14:55.758Z,2.25
2019-02-05T03:17:25.828Z,2.87
2019-02-05T03:19:55.645Z,2.05
2019-02-05T03:22:25.781Z,1.87
2019-02-05T03:24:55.585Z,1.82
2019-02-05T03:27:25.450Z,1.90
2019-02-05T03:29:55.705Z,2.20
2019-02-05T03:32:25.528Z,2.10
2019-02-05T03:34:55.405Z,2.35
2019-02-05T03:37:25.345Z,2.17
2019-02-05T03:39:55.159Z,2.10
2019-02-05T03:42:25.108Z,2.35
2019-02-05T03:44:55.309Z,1.95
2019-02-05T03:47:25.599Z,2.17
2019-02-05T03:49:55.786Z,2.27
2019-02-05T03:52:35.992Z,2.30
2019-02-05T03:55:52.964Z,1.80
2019-02-05T03:58:46.200Z,1.98
2019-02-05T04:01:39.251Z,1.75
2019-02-05T04:04:56.350Z,2.00
2019-02-05T04:07:40.505Z,1.72
2019-02-05T04:10:32.836Z,1.70
2019-02-05T04:13:21.908Z,1.92
2019-02-05T04:16:44.999Z,2.05
2019-02-05T04:19:45.512Z,1.95
2019-02-05T04:22:38.592Z,1.75
2019-02-05T04:26:01.912Z,2.55
2019-02-05T04:28:47.113Z,2.12
2019-02-05T04:31:40.548Z,1.87
2019-02-05T04:34:25.880Z,2.50
2019-02-05T04:37:06.541Z,2.00
2019-02-05T04:40:07.260Z,2.25
2019-02-05T04:42:56.730Z,2.77
2019-02-05T04:46:05.993Z,2.05
2019-02-05T04:48:59.653Z,2.50
2019-02-05T04:51:59.680Z,2.20
2019-02-05T04:54:41.984Z,1.77
2019-02-05T04:57:57.523Z,2.40
2019-02-05T05:00:52.566Z,2.00
2019-02-05T05:04:09.836Z,1.87
2019-02-05T05:07:19.184Z,2.33
2019-02-05T05:09:57.033Z,2.12
2019-02-05T05:12:28.585Z,2.00
2019-02-05T05:14:59.000Z,1.80
2019-02-05T05:17:28.834Z,2.50
2019-02-05T05:19:59.045Z,1.67
2019-02-05T05:22:29.116Z,1.90
2019-02-05T05:24:59.459Z,2.30
2019-02-05T05:27:29.790Z,2.45
2019-02-05T05:29:59.739Z,2.00
2019-02-05T05:32:29.693Z,2.00
2019-02-05T05:35:04.993Z,8.50
2019-02-05T05:37:34.944Z,3.95
2019-02-05T05:40:05.556Z,2.05
2019-02-05T05:42:35.443Z,1.75
2019-02-05T05:45:07.111Z,1.85
2019-02-05T05:47:36.989Z,2.47
2019-02-05T05:50:09.407Z,2.17
2019-02-05T05:52:39.219Z,2.20
2019-02-05T05:55:09.907Z,2.52
2019-02-05T05:57:39.867Z,2.10
2019-02-05T06:00:13.972Z,2.08
2019-02-05T06:02:44.095Z,2.02
2019-02-05T06:05:16.017Z,2.10
2019-02-05T06:07:46.140Z,2.52
2019-02-05T06:10:17.108Z,2.55
2019-02-05T06:12:47.063Z,1.92
2019-02-05T06:15:17.145Z,1.98
2019-02-05T06:17:47.024Z,2.27
2019-02-05T06:20:17.538Z,2.12
2019-02-05T06:22:47.504Z,2.12
2019-02-05T06:25:17.337Z,3.30
2019-02-05T06:27:47.364Z,2.60
2019-02-05T06:30:17.566Z,2.27
2019-02-05T06:32:47.509Z,2.10
2019-02-05T06:35:17.405Z,2.37
2019-02-05T06:37:47.295Z,2.15
2019-02-05T06:40:18.893Z,2.20
2019-02-05T06:42:48.872Z,2.37
2019-02-05T06:45:19.280Z,2.17
2019-02-05T06:47:48.697Z,2.17
2019-02-05T06:50:18.776Z,2.65
2019-02-05T06:52:49.934Z,3.10
2019-02-05T06:55:19.828Z,2.87
2019-02-05T06:57:49.628Z,2.20
2019-02-05T07:00:21.261Z,2.75
2019-02-05T07:02:53.556Z,2.70
2019-02-05T07:05:23.956Z,2.83
2019-02-05T07:07:54.228Z,2.10
2019-02-05T07:10:24.280Z,2.15
2019-02-05T07:12:54.372Z,2.40
2019-02-05T07:15:24.412Z,2.50
2019-02-05T07:17:54.528Z,2.85
2019-02-05T07:20:24.353Z,2.47
2019-02-05T07:22:55.780Z,2.05
2019-02-05T07:25:25.888Z,2.35
2019-02-05T07:27:55.965Z,2.65
2019-02-05T07:30:26.093Z,2.37
2019-02-05T07:32:56.164Z,2.60
2019-02-05T07:35:26.168Z,2.90
2019-02-05T07:37:56.501Z,2.45
2019-02-05T07:40:26.580Z,2.25
2019-02-05T07:42:56.558Z,2.58
2019-02-05T07:45:26.432Z,2.35
2019-02-05T07:47:56.270Z,2.15
2019-02-05T07:50:26.676Z,2.27
2019-02-05T07:52:56.653Z,2.15
2019-02-05T07:55:26.996Z,2.45
2019-02-05T07:57:56.927Z,2.97
2019-02-05T08:00:28.266Z,4.28
2019-02-05T08:02:58.232Z,3.30
2019-02-05T08:05:32.355Z,4.83
2019-02-05T08:08:02.536Z,4.37
2019-02-05T08:10:32.921Z,3.52
2019-02-05T08:13:02.867Z,2.92
2019-02-05T08:15:33.592Z,2.60
2019-02-05T08:18:03.572Z,2.90
2019-02-05T08:20:33.533Z,2.42
2019-02-05T08:23:03.673Z,3.90
2019-02-05T08:25:33.564Z,3.45
2019-02-05T08:28:04.536Z,2.70
2019-02-05T08:30:35.384Z,3.45
2019-02-05T08:33:05.525Z,4.20
2019-02-05T08:35:35.487Z,3.87
2019-02-05T08:38:05.525Z,3.03
2019-02-05T08:40:35.537Z,3.60
2019-02-05T08:43:06.353Z,3.00
2019-02-05T08:45:36.862Z,2.80
2019-02-05T08:48:07.877Z,2.63
2019-02-05T08:50:37.897Z,2.73
2019-02-05T08:53:07.817Z,3.25
2019-02-05T08:55:37.692Z,3.27
2019-02-05T08:58:09.481Z,3.07
2019-02-05T09:00:39.660Z,2.97
2019-02-05T09:03:10.536Z,2.00
2019-02-05T09:05:40.639Z,2.83
2019-02-05T09:08:10.664Z,2.10
2019-02-05T09:10:40.853Z,2.67
2019-02-05T09:13:11.423Z,3.30
2019-02-05T09:15:41.544Z,2.57
2019-02-05T09:18:11.525Z,2.70
2019-02-05T09:20:41.397Z,2.30
2019-02-05T09:23:14.139Z,2.70
2019-02-05T09:25:43.172Z,3.07
2019-02-05T09:28:14.740Z,2.13
2019-02-05T09:30:44.699Z,2.47
2019-02-05T09:33:14.675Z,3.20
2019-02-05T09:35:44.629Z,2.80
2019-02-05T09:38:14.586Z,3.17
2019-02-05T09:40:44.795Z,2.73
2019-02-05T09:43:15.200Z,2.37
2019-02-05T09:45:45.093Z,3.00
2019-02-05T09:48:15.140Z,2.90
2019-02-05T09:50:45.374Z,3.00
2019-02-05T09:53:15.385Z,2.73
2019-02-05T09:55:45.261Z,3.17
2019-02-05T09:58:15.296Z,2.13
2019-02-05T10:00:45.245Z,2.60
2019-02-05T10:03:15.129Z,3.13
2019-02-05T10:05:45.080Z,2.20
2019-02-05T10:08:14.868Z,4.07
2019-02-05T10:10:44.835Z,2.67
2019-02-05T10:13:14.888Z,2.93
2019-02-05T10:15:45.018Z,3.00
2019-02-05T10:18:14.973Z,2.67
2019-02-05T10:20:45.046Z,2.40
2019-02-05T10:23:14.998Z,3.27
2019-02-05T10:25:44.877Z,2.57
2019-02-05T10:28:14.685Z,2.70
2019-02-05T10:30:45.928Z,2.47
2019-02-05T10:33:15.908Z,2.87
2019-02-05T10:35:46.317Z,2.33
2019-02-05T10:38:15.754Z,2.23
2019-02-05T10:40:45.594Z,2.23
2019-02-05T10:43:15.637Z,2.30
2019-02-05T10:45:46.077Z,3.13
2019-02-05T10:48:16.196Z,2.47
2019-02-05T10:50:46.076Z,2.17
2019-02-05T10:53:15.989Z,1.50
2019-02-05T10:55:46.242Z,2.40
2019-02-05T10:58:16.116Z,2.60
2019-02-05T11:00:46.441Z,2.73
2019-02-05T11:03:16.392Z,2.50
2019-02-05T11:05:46.361Z,2.53
2019-02-05T11:08:16.419Z,2.50
2019-02-05T11:10:46.316Z,2.20
2019-02-05T11:13:18.839Z,2.63
2019-02-05T11:15:47.712Z,2.37
2019-02-05T11:18:17.524Z,4.10
2019-02-05T11:20:47.426Z,2.60
2019-02-05T11:23:18.932Z,2.50
2019-02-05T11:25:48.821Z,1.77
2019-02-05T11:28:18.626Z,2.80
2019-02-05T11:30:48.512Z,2.83
2019-02-05T11:33:18.500Z,2.50
2019-02-05T11:35:48.396Z,2.47
2019-02-05T11:38:18.756Z,2.57
2019-02-05T11:40:48.968Z,3.90
2019-02-05T11:43:19.266Z,3.63
2019-02-05T11:45:50.080Z,3.27
2019-02-05T11:48:20.850Z,3.40
2019-02-05T11:50:51.239Z,3.13
2019-02-05T11:53:21.629Z,3.60
2019-02-05T11:55:51.920Z,3.00
2019-02-05T11:58:21.860Z,2.43
2019-02-05T12:01:01.294Z,2.97
2019-02-05T12:03:30.947Z,2.50
2019-02-05T12:06:01.077Z,3.13
2019-02-05T12:08:31.420Z,2.60
2019-02-05T12:11:01.897Z,2.87
2019-02-05T12:13:32.375Z,2.80
2019-02-05T12:16:03.279Z,4.27
2019-02-05T12:18:33.500Z,2.77
2019-02-05T12:21:03.916Z,2.53
2019-02-05T12:23:34.127Z,2.80
2019-02-05T12:26:04.682Z,2.63
2019-02-05T12:28:35.117Z,3.00
2019-02-05T12:31:05.598Z,2.60
2019-02-05T12:33:35.896Z,2.67
2019-02-05T12:36:06.176Z,2.30
2019-02-05T12:38:36.503Z,2.80
2019-02-05T12:41:06.449Z,2.30
2019-02-05T12:43:36.333Z,2.50
2019-02-05T12:46:06.308Z,2.50
2019-02-05T12:48:36.229Z,3.00
2019-02-05T12:51:07.156Z,2.70
2019-02-05T12:53:37.041Z,3.60
2019-02-05T12:56:07.123Z,3.57
2019-02-05T12:58:36.949Z,3.10
2019-02-05T13:01:06.998Z,3.20
2019-02-05T13:03:36.876Z,3.67
2019-02-05T13:06:06.985Z,3.40
2019-02-05T13:08:36.984Z,3.17
2019-02-05T13:11:06.936Z,3.33
2019-02-05T13:13:36.833Z,4.10
2019-02-05T13:16:07.657Z,3.20
2019-02-05T13:18:37.538Z,3.97
2019-02-05T13:21:07.434Z,3.20
2019-02-05T13:23:37.325Z,2.77
2019-02-05T13:26:07.550Z,4.00
2019-02-05T13:28:38.080Z,3.07
2019-02-05T13:31:08.482Z,3.60
2019-02-05T13:33:38.625Z,3.33
2019-02-05T13:36:11.147Z,4.90
2019-02-05T13:38:41.780Z,3.37
2019-02-05T13:41:12.074Z,4.23
2019-02-05T13:43:42.282Z,3.23
2019-02-05T13:46:12.378Z,2.93
2019-02-05T13:48:41.965Z,3.27
2019-02-05T13:51:11.857Z,3.33
2019-02-05T13:53:41.770Z,3.27
2019-02-05T13:56:11.932Z,2.50
2019-02-05T13:58:42.239Z,2.93
2019-02-05T14:01:19.651Z,2.70
2019-02-05T14:03:43.712Z,3.40
2019-02-05T14:06:13.529Z,2.73
2019-02-05T14:08:43.601Z,2.60
2019-02-05T14:11:13.940Z,3.03
2019-02-05T14:13:43.965Z,2.90
2019-02-05T14:16:14.024Z,2.80
2019-02-05T14:18:54.687Z,3.43
2019-02-05T14:21:15.525Z,2.70
2019-02-05T14:23:45.577Z,2.70
2019-02-05T14:26:15.657Z,2.33
2019-02-05T14:28:45.492Z,2.87
2019-02-05T14:31:15.388Z,3.67
2019-02-05T14:33:45.192Z,3.30
2019-02-05T14:36:15.093Z,2.60
2019-02-05T14:38:44.932Z,3.20
2019-02-05T14:41:15.040Z,3.13
2019-02-05T14:43:46.286Z,2.60
2019-02-05T14:46:16.414Z,3.30
2019-02-05T14:48:45.988Z,3.10
2019-02-05T14:51:16.117Z,2.97
2019-02-05T14:53:46.638Z,2.93
2019-02-05T14:56:16.849Z,3.17
2019-02-05T14:58:46.923Z,3.00
2019-02-05T15:01:16.976Z,3.10
2019-02-05T15:03:47.102Z,3.57
2019-02-05T15:06:17.317Z,3.77
2019-02-05T15:08:47.607Z,3.30
2019-02-05T15:11:17.798Z,3.73
2019-02-05T15:13:48.244Z,3.33
2019-02-05T15:16:18.216Z,2.70
2019-02-05T15:18:48.315Z,2.97
2019-02-05T15:21:18.960Z,3.10
2019-02-05T15:23:49.177Z,3.83
2019-02-05T15:26:19.471Z,4.37
2019-02-05T15:28:49.873Z,4.80
2019-02-05T15:31:20.251Z,3.90
2019-02-05T15:33:57.945Z,3.77
2019-02-05T15:36:42.625Z,3.20
2019-02-05T15:39:14.694Z,3.90
2019-02-05T15:41:44.922Z,3.40
2019-02-05T15:44:15.725Z,4.43
2019-02-05T15:46:46.125Z,3.83
2019-02-05T15:49:16.401Z,3.83
2019-02-05T15:51:46.641Z,4.97
2019-02-05T15:54:16.877Z,4.73
2019-02-05T15:56:46.931Z,5.23
2019-02-05T15:59:17.168Z,4.90
2019-02-05T16:01:47.400Z,4.40
2019-02-05T16:04:17.281Z,3.97
2019-02-05T16:06:47.293Z,4.50
2019-02-05T16:09:17.368Z,4.80
2019-02-05T16:11:47.619Z,4.77
2019-02-05T16:14:17.460Z,6.10
2019-02-05T16:16:47.272Z,4.93
2019-02-05T16:19:17.449Z,5.10
2019-02-05T16:21:47.341Z,3.80
2019-02-05T16:24:17.225Z,5.80
2019-02-05T16:26:47.524Z,7.03
2019-02-05T16:29:17.345Z,5.83
2019-02-05T16:31:47.179Z,5.73
2019-02-05T16:34:17.085Z,7.47
2019-02-05T16:36:48.746Z,5.20
2019-02-05T16:39:18.757Z,5.07
2019-02-05T16:41:48.898Z,6.23
2019-02-05T16:44:18.778Z,5.33
2019-02-05T16:46:48.605Z,5.10
2019-02-05T16:49:18.444Z,5.57
2019-02-05T16:51:48.444Z,5.33
2019-02-05T16:54:18.553Z,5.80
2019-02-05T16:56:48.383Z,7.40
2019-02-05T16:59:18.409Z,9.40
2019-02-05T17:01:48.348Z,8.77
2019-02-05T17:04:18.187Z,5.00
2019-02-05T17:06:48.198Z,5.47
2019-02-05T17:09:19.302Z,5.43
2019-02-05T17:11:49.368Z,4.87
2019-02-05T17:14:19.278Z,4.83
2019-02-05T17:16:49.132Z,4.03
2019-02-05T17:19:19.040Z,4.97
2019-02-05T17:21:48.986Z,5.50
2019-02-05T17:24:19.152Z,5.60
2019-02-05T17:26:49.053Z,4.93
2019-02-05T17:29:18.938Z,4.30
2019-02-05T17:31:48.976Z,4.50
2019-02-05T17:34:18.809Z,5.50
2019-02-05T17:36:48.620Z,7.83
2019-02-05T17:39:18.633Z,6.70
2019-02-05T17:41:48.654Z,5.13
2019-02-05T17:44:18.530Z,5.07
2019-02-05T17:46:48.332Z,4.70
2019-02-05T17:49:18.224Z,5.53
2019-02-05T17:51:48.033Z,4.37
2019-02-05T17:54:17.989Z,4.90
2019-02-05T17:56:48.053Z,4.37
2019-02-05T17:59:18.181Z,4.67
2019-02-05T18:01:48.069Z,4.83
2019-02-05T18:04:17.996Z,4.77
2019-02-05T18:06:48.264Z,4.17
2019-02-05T18:09:18.148Z,5.13
2019-02-05T18:11:47.952Z,5.27
2019-02-05T18:14:17.915Z,5.37
2019-02-05T18:16:47.730Z,3.60
2019-02-05T18:19:17.600Z,4.20
2019-02-05T18:21:47.653Z,3.97
2019-02-05T18:24:17.529Z,3.73
2019-02-05T18:26:47.326Z,4.27
2019-02-05T18:29:17.167Z,4.30
2019-02-05T18:31:47.356Z,5.83
2019-02-05T18:34:17.241Z,5.10
2019-02-05T18:36:47.047Z,3.40
2019-02-05T18:39:17.000Z,3.50
2019-02-05T18:41:46.872Z,2.70
2019-02-05T18:44:16.688Z,4.23
2019-02-05T18:46:46.496Z,3.07
2019-02-05T18:49:16.760Z,4.67
2019-02-05T18:51:46.642Z,3.43
2019-02-05T18:54:16.532Z,3.50
2019-02-05T18:56:46.588Z,3.93
2019-02-05T18:59:16.562Z,3.37
2019-02-05T19:01:46.760Z,4.00
2019-02-05T19:04:16.957Z,3.83
2019-02-05T19:06:46.828Z,3.53
2019-02-05T19:09:16.709Z,3.67
2019-02-05T19:11:46.672Z,4.25
2019-02-05T19:14:16.839Z,4.17
2019-02-05T19:16:46.780Z,3.97
2019-02-05T19:19:16.848Z,5.00
2019-02-05T19:21:46.677Z,4.60
2019-02-05T19:24:32.841Z,3.70
2019-02-05T19:27:02.901Z,4.40
2019-02-05T19:29:33.144Z,3.30
2019-02-05T19:32:03.150Z,3.87
2019-02-05T19:34:32.944Z,4.63
2019-02-05T19:37:03.000Z,4.33
2019-02-05T19:39:32.805Z,5.13
2019-02-05T19:42:02.700Z,3.73
2019-02-05T19:44:32.884Z,3.97
2019-02-05T19:47:08.997Z,3.20
2019-02-05T19:49:41.293Z,4.22
2019-02-05T19:52:11.256Z,3.43
2019-02-05T19:54:41.147Z,3.50
2019-02-05T19:57:10.967Z,4.17
2019-02-05T19:59:41.052Z,4.77
2019-02-05T20:02:11.080Z,3.33
2019-02-05T20:04:40.957Z,3.37
2019-02-05T20:07:11.055Z,4.23
2019-02-05T20:09:41.004Z,3.20
2019-02-05T20:12:10.909Z,4.03
2019-02-05T20:14:40.717Z,3.00
2019-02-05T20:17:10.688Z,3.02
2019-02-05T20:19:40.567Z,2.60
2019-02-05T20:22:10.568Z,3.60
2019-02-05T20:24:40.454Z,3.20
2019-02-05T20:27:10.424Z,3.20
2019-02-05T20:29:40.256Z,3.40
2019-02-05T20:32:11.296Z,3.45
2019-02-05T20:34:41.308Z,7.87
2019-02-05T20:37:11.301Z,4.58
2019-02-05T20:39:41.120Z,6.33
2019-02-05T20:42:11.264Z,4.20
2019-02-05T20:44:41.129Z,4.75
2019-02-05T20:47:11.110Z,5.85
2019-02-05T20:49:40.999Z,3.90
2019-02-05T20:52:10.815Z,3.52
2019-02-05T20:54:40.780Z,3.90
2019-02-05T20:57:10.752Z,3.47
2019-02-05T20:59:40.648Z,3.55
2019-02-05T21:02:11.063Z,3.95
2019-02-05T21:04:48.017Z,3.75
2019-02-05T21:07:12.518Z,3.22
2019-02-05T21:09:42.472Z,3.95
2019-02-05T21:12:12.873Z,3.87
2019-02-05T21:14:42.563Z,3.05
2019-02-05T21:17:13.262Z,4.58
2019-02-05T21:19:43.136Z,3.50
2019-02-05T21:22:13.069Z,2.90
2019-02-05T21:24:42.993Z,2.37
2019-02-05T21:27:13.074Z,2.33
2019-02-05T21:29:42.846Z,3.42
2019-02-05T21:32:13.068Z,2.60
2019-02-05T21:34:42.872Z,3.00
2019-02-05T21:37:12.692Z,2.98
2019-02-05T21:39:42.492Z,2.95
2019-02-05T21:42:12.288Z,2.45
2019-02-05T21:44:42.097Z,2.80
2019-02-05T21:47:12.521Z,3.00
2019-02-05T21:49:42.336Z,3.37
2019-02-05T21:52:12.289Z,3.25
2019-02-05T21:54:42.188Z,3.47
2019-02-05T21:57:12.386Z,2.95
2019-02-05T21:59:42.788Z,3.90
2019-02-05T22:02:12.670Z,2.25
2019-02-05T22:04:42.556Z,3.12
2019-02-05T22:07:12.464Z,2.70
2019-02-05T22:09:42.345Z,2.30
2019-02-05T22:12:12.372Z,2.33
2019-02-05T22:14:42.520Z,3.62
2019-02-05T22:17:12.763Z,2.98
2019-02-05T22:19:42.587Z,3.05
2019-02-05T22:22:12.393Z,4.08
2019-02-05T22:24:44.714Z,3.98
2019-02-05T22:27:13.693Z,3.65
2019-02-05T22:29:43.520Z,4.47
2019-02-05T22:32:13.421Z,4.58
2019-02-05T22:34:43.244Z,4.33
2019-02-05T22:37:13.301Z,4.50
2019-02-05T22:39:43.555Z,4.83
2019-02-05T22:42:13.349Z,5.03
2019-02-05T22:44:43.540Z,4.28
2019-02-05T22:47:13.412Z,4.37
2019-02-05T22:49:43.232Z,4.67
2019-02-05T22:52:13.055Z,4.62
2019-02-05T22:54:42.929Z,4.40
2019-02-05T22:57:12.721Z,5.12
2019-02-05T22:59:42.829Z,4.53
2019-02-05T23:02:12.807Z,4.75
2019-02-05T23:05:18.365Z,4.45
2019-02-05T23:07:48.621Z,4.17
2019-02-05T23:10:40.208Z,4.10
2019-02-05T23:13:12.548Z,4.62
2019-02-05T23:15:44.675Z,4.90
2019-02-05T23:18:14.965Z,4.05
2019-02-05T23:20:44.915Z,4.17
2019-02-05T23:23:14.871Z,4.08
2019-02-05T23:25:44.961Z,4.37
2019-02-05T23:28:14.918Z,4.42
2019-02-05T23:30:44.887Z,3.70
2019-02-05T23:33:15.112Z,4.35
2019-02-05T23:35:45.064Z,3.90
2019-02-05T23:38:14.885Z,3.58
2019-02-05T23:40:44.905Z,2.92
2019-02-05T23:43:14.928Z,4.00
2019-02-05T23:45:44.891Z,2.87
2019-02-05T23:48:14.856Z,2.92
2019-02-05T23:50:44.709Z,3.72
2019-02-05T23:53:14.568Z,3.62
2019-02-05T23:55:44.368Z,3.60
2019-02-05T23:58:14.208Z,3.58
